createdAt,value
2019-05-03T00:03:34.094Z,7.95
2019-05-03T00:08:41.471Z,7.73
2019-05-03T00:13:47.267Z,7.70
2019-05-03T00:18:53.143Z,7.56
2019-05-03T00:23:59.215Z,7.52
2019-05-03T00:29:05.193Z,7.46
2019-05-03T00:34:21.844Z,7.46
2019-05-03T00:39:29.307Z,7.39
2019-05-03T00:44:35.086Z,7.36
2019-05-03T00:49:42.556Z,7.27
2019-05-03T00:54:48.364Z,7.15
2019-05-03T00:59:54.141Z,7.14
2019-05-03T01:04:59.903Z,6.91
2019-05-03T01:10:09.090Z,6.97
2019-05-03T01:15:22.605Z,6.77
2019-05-03T01:20:28.474Z,6.77
2019-05-03T01:25:35.575Z,6.55
2019-05-03T01:30:42.496Z,6.55
2019-05-03T01:35:48.840Z,6.42
2019-05-03T01:40:54.469Z,6.36
2019-05-03T01:46:02.515Z,6.45
2019-05-03T01:51:12.349Z,6.47
2019-05-03T01:56:18.168Z,6.43
2019-05-03T02:01:42.200Z,6.36
2019-05-03T02:06:48.354Z,6.21
2019-05-03T02:11:54.319Z,6.25
2019-05-03T02:17:01.835Z,6.18
2019-05-03T02:22:07.647Z,6.14
2019-05-03T02:27:14.502Z,6.10
2019-05-03T02:32:23.123Z,6.08
2019-05-03T02:37:27.777Z,6.09
2019-05-03T02:42:35.597Z,6.07
2019-05-03T02:47:47.199Z,5.92
2019-05-03T02:52:55.182Z,5.94
2019-05-03T02:58:00.983Z,5.83
2019-05-03T03:03:06.799Z,5.82
2019-05-03T03:08:12.783Z,5.84
2019-05-03T03:13:20.099Z,5.79
2019-05-03T03:18:25.939Z,5.85
2019-05-03T03:23:35.492Z,5.69
2019-05-03T03:28:46.247Z,5.74
2019-05-03T03:33:52.381Z,5.79
2019-05-03T03:38:58.504Z,5.71
2019-05-03T03:44:05.809Z,5.71
2019-05-03T03:49:15.537Z,5.70
2019-05-03T03:54:22.428Z,5.55
2019-05-03T03:59:28.168Z,5.61
2019-05-03T04:04:36.018Z,5.53
2019-05-03T04:09:45.378Z,5.63
2019-05-03T04:14:56.256Z,5.48
2019-05-03T04:20:04.973Z,5.67
2019-05-03T04:25:11.441Z,5.71
2019-05-03T04:30:18.201Z,5.73
2019-05-03T04:35:26.444Z,5.85
2019-05-03T04:40:31.482Z,5.80
2019-05-03T04:45:37.557Z,5.91
2019-05-03T04:50:45.671Z,5.82
2019-05-03T04:55:50.999Z,5.79
2019-05-03T05:00:57.003Z,5.88
2019-05-03T05:06:02.831Z,6.05
2019-05-03T05:11:10.507Z,6.10
2019-05-03T05:16:16.314Z,6.28
2019-05-03T05:21:25.274Z,6.33
2019-05-03T05:26:50.028Z,6.39
2019-05-03T05:31:57.393Z,6.37
2019-05-03T05:37:03.102Z,6.53
2019-05-03T05:42:09.863Z,6.44
2019-05-03T05:47:26.719Z,6.41
2019-05-03T05:52:34.521Z,6.78
2019-05-03T05:58:01.970Z,6.99
2019-05-03T06:02:58.364Z,6.92
2019-05-03T06:08:22.029Z,6.87
2019-05-03T06:13:29.357Z,6.60
2019-05-03T06:18:39.943Z,6.90
2019-05-03T06:23:47.357Z,6.88
2019-05-03T06:28:54.510Z,7.40
2019-05-03T06:34:00.424Z,7.22
2019-05-03T06:39:10.696Z,7.37
2019-05-03T06:44:19.161Z,7.29
2019-05-03T06:49:25.618Z,7.42
2019-05-03T06:54:31.487Z,7.70
2019-05-03T06:59:39.095Z,7.85
2019-05-03T07:04:56.205Z,8.16
2019-05-03T07:10:06.343Z,8.30
2019-05-03T07:15:14.406Z,8.03
2019-05-03T07:20:19.747Z,8.08
2019-05-03T07:25:25.974Z,8.68
2019-05-03T07:30:34.532Z,8.96
2019-05-03T07:35:39.656Z,8.51
2019-05-03T07:40:45.529Z,8.68
2019-05-03T07:45:51.546Z,8.78
2019-05-03T07:50:57.266Z,9.36
2019-05-03T07:56:15.489Z,9.35
2019-05-03T08:01:25.011Z,9.31
2019-05-03T08:06:30.240Z,9.27
2019-05-03T08:11:36.855Z,9.51
2019-05-03T08:16:42.660Z,9.37
2019-05-03T08:21:48.469Z,9.61
2019-05-03T08:26:55.763Z,10.41
2019-05-03T08:32:05.035Z,10.05
2019-05-03T08:37:12.437Z,9.96
2019-05-03T08:42:19.817Z,9.85
2019-05-03T08:47:25.825Z,9.65
2019-05-03T08:52:31.692Z,9.95
2019-05-03T08:57:37.457Z,10.16
2019-05-03T09:02:44.730Z,9.77
2019-05-03T09:07:50.969Z,10.39
2019-05-03T09:13:07.466Z,10.41
2019-05-03T09:18:17.375Z,10.36
2019-05-03T09:23:23.988Z,10.81
2019-05-03T09:28:29.623Z,11.20
2019-05-03T09:33:35.753Z,11.03
2019-05-03T09:38:41.629Z,11.32
2019-05-03T09:43:48.462Z,10.74
2019-05-03T09:49:09.472Z,11.51
2019-05-03T09:54:22.852Z,10.63
2019-05-03T09:59:35.180Z,10.49
2019-05-03T10:04:44.611Z,10.63
2019-05-03T10:09:50.437Z,10.96
2019-05-03T10:14:56.209Z,10.80
2019-05-03T10:20:02.201Z,10.38
2019-05-03T10:25:10.537Z,10.61
2019-05-03T10:30:19.752Z,11.60
2019-05-03T10:35:25.942Z,11.38
2019-05-03T10:40:32.127Z,12.03
2019-05-03T10:45:38.411Z,12.36
2019-05-03T10:50:44.578Z,11.80
2019-05-03T10:56:08.538Z,11.91
2019-05-03T11:01:17.007Z,11.51
2019-05-03T11:06:22.816Z,11.10
2019-05-03T11:11:28.747Z,10.78
2019-05-03T11:16:35.277Z,10.74
2019-05-03T11:21:41.139Z,10.80
2019-05-03T11:26:49.653Z,11.77
2019-05-03T11:32:08.260Z,11.79
2019-05-03T11:37:21.350Z,11.62
2019-05-03T11:42:27.219Z,11.28
2019-05-03T11:47:34.863Z,11.19
2019-05-03T11:52:40.914Z,11.11
2019-05-03T11:57:46.782Z,11.67
2019-05-03T12:02:55.595Z,12.20
2019-05-03T12:08:02.017Z,12.44
2019-05-03T12:13:27.843Z,12.41
2019-05-03T12:18:47.880Z,12.88
2019-05-03T12:23:41.823Z,12.90
2019-05-03T12:28:48.077Z,12.74
2019-05-03T12:33:55.100Z,12.20
2019-05-03T12:39:00.939Z,12.61
2019-05-03T12:44:08.203Z,13.07
2019-05-03T12:49:15.505Z,13.05
2019-05-03T12:54:21.291Z,13.34
2019-05-03T12:59:31.649Z,13.00
2019-05-03T13:04:39.035Z,12.54
2019-05-03T13:09:45.745Z,11.93
2019-05-03T13:14:51.512Z,11.63
2019-05-03T13:19:57.426Z,11.61
2019-05-03T13:25:03.842Z,11.88
2019-05-03T13:30:10.814Z,11.55
2019-05-03T13:35:16.639Z,11.67
2019-05-03T13:40:22.507Z,11.42
2019-05-03T13:45:28.210Z,11.90
2019-05-03T13:50:35.156Z,11.90
2019-05-03T13:55:41.139Z,11.39
2019-05-03T14:00:47.453Z,11.43
2019-05-03T14:05:55.057Z,11.33
2019-05-03T14:11:01.016Z,11.64
2019-05-03T14:16:06.893Z,12.36
2019-05-03T14:21:29.484Z,11.68
2019-05-03T14:26:35.329Z,11.45
2019-05-03T14:31:41.012Z,11.35
2019-05-03T14:36:47.670Z,11.19
2019-05-03T14:41:55.521Z,11.67
2019-05-03T14:47:01.457Z,11.34
2019-05-03T14:52:07.365Z,11.36
2019-05-03T14:57:30.192Z,11.58
2019-05-03T15:02:50.063Z,11.35
2019-05-03T15:07:50.950Z,11.34
2019-05-03T15:12:56.732Z,11.54
2019-05-03T15:18:02.439Z,11.62
2019-05-03T15:23:08.092Z,11.46
2019-05-03T15:28:13.736Z,11.30
2019-05-03T15:33:19.398Z,11.24
2019-05-03T15:38:25.078Z,11.11
2019-05-03T15:43:48.590Z,11.32
2019-05-03T15:48:58.770Z,11.56
2019-05-03T15:54:04.804Z,11.47
2019-05-03T15:59:10.658Z,12.28
2019-05-03T16:04:16.530Z,12.08
2019-05-03T16:09:22.329Z,12.75
2019-05-03T16:14:28.187Z,12.09
2019-05-03T16:19:35.452Z,12.75
2019-05-03T16:24:41.443Z,13.43
2019-05-03T16:29:47.319Z,11.81
2019-05-03T16:34:54.883Z,11.82
2019-05-03T16:40:00.880Z,11.94
2019-05-03T16:45:07.015Z,11.81
2019-05-03T16:50:14.516Z,11.34
2019-05-03T16:55:21.483Z,11.19
2019-05-03T17:00:27.268Z,10.99
2019-05-03T17:05:51.066Z,11.00
2019-05-03T17:11:10.962Z,10.83
2019-05-03T17:16:16.710Z,10.72
2019-05-03T17:21:22.429Z,10.41
2019-05-03T17:26:28.140Z,10.24
2019-05-03T17:31:35.187Z,10.10
2019-05-03T17:36:41.267Z,9.88
2019-05-03T17:41:54.878Z,9.64
2019-05-03T17:47:00.639Z,9.60
2019-05-03T17:52:07.982Z,9.60
2019-05-03T17:57:21.538Z,9.77
2019-05-03T18:02:31.566Z,9.77
2019-05-03T18:07:55.160Z,9.61
2019-05-03T18:13:00.999Z,9.48
2019-05-03T18:18:07.819Z,9.30
2019-05-03T18:23:15.293Z,9.06
2019-05-03T18:28:21.129Z,9.01
2019-05-03T18:33:26.765Z,8.84
2019-05-03T18:38:35.214Z,8.71
2019-05-03T18:43:42.664Z,8.73
2019-05-03T18:48:48.527Z,8.59
2019-05-03T18:53:54.531Z,8.75
2019-05-03T18:59:00.426Z,8.63
2019-05-03T19:04:14.704Z,8.71
2019-05-03T19:09:25.388Z,8.55
2019-05-03T19:14:31.187Z,8.71
2019-05-03T19:19:44.549Z,8.51
2019-05-03T19:24:50.670Z,8.50
2019-05-03T19:29:56.667Z,8.49
2019-05-03T19:35:02.460Z,8.52
2019-05-03T19:40:11.117Z,8.50
2019-05-03T19:45:16.972Z,8.45
2019-05-03T19:50:26.961Z,8.34
2019-05-03T19:55:30.523Z,8.36
2019-05-03T20:00:48.047Z,8.31
2019-05-03T20:05:58.227Z,8.26
2019-05-03T20:11:16.993Z,8.20
2019-05-03T20:16:22.826Z,8.11
2019-05-03T20:21:28.734Z,8.09
2019-05-03T20:26:34.926Z,8.06
2019-05-03T20:31:40.789Z,8.01
2019-05-03T20:36:46.557Z,8.01
2019-05-03T20:41:52.305Z,7.99
2019-05-03T20:46:59.728Z,7.98
2019-05-03T20:52:05.397Z,7.90
2019-05-03T20:57:11.269Z,8.05
2019-05-03T21:02:17.342Z,8.01
2019-05-03T21:07:23.340Z,7.96
2019-05-03T21:12:31.439Z,7.89
2019-05-03T21:17:45.168Z,7.89
2019-05-03T21:22:51.994Z,7.83
2019-05-03T21:27:57.917Z,7.93
2019-05-03T21:33:05.431Z,7.86
2019-05-03T21:38:11.756Z,7.80
2019-05-03T21:43:17.626Z,7.77
2019-05-03T21:48:41.628Z,7.77
2019-05-03T21:53:47.602Z,7.78
2019-05-03T21:58:55.285Z,7.82
2019-05-03T22:04:01.081Z,7.87
2019-05-03T22:09:07.563Z,7.71
2019-05-03T22:14:17.053Z,7.71
2019-05-03T22:19:24.925Z,7.64
2019-05-03T22:24:32.478Z,7.73
2019-05-03T22:29:39.892Z,7.56
2019-05-03T22:34:45.730Z,7.58
2019-05-03T22:39:51.605Z,7.60
2019-05-03T22:44:57.371Z,7.55
2019-05-03T22:50:05.271Z,7.43
2019-05-03T22:55:10.692Z,7.32
2019-05-03T23:00:16.829Z,7.31
2019-05-03T23:05:23.416Z,7.23
2019-05-03T23:10:29.284Z,7.13
2019-05-03T23:15:35.156Z,6.92
2019-05-03T23:20:42.558Z,6.92
2019-05-03T23:25:48.435Z,6.84
2019-05-03T23:30:54.812Z,6.86
2019-05-03T23:36:00.799Z,6.77
2019-05-03T23:41:06.673Z,6.76
2019-05-03T23:46:14.604Z,6.69
2019-05-03T23:51:38.586Z,6.68
2019-05-03T23:56:45.842Z,6.52
